sensor_id;sensor_type;location;lat;lon;timestamp;temperature;humidity
39779;DHT22;25454;49.878;8.618;2022-12-18T00:02:24;-6.00;99.90
39779;DHT22;25454;49.878;8.618;2022-12-18T00:07:25;-6.00;99.90
39779;DHT22;25454;49.878;8.618;2022-12-18T00:12:25;-6.00;99.90
39779;DHT22;25454;49.878;8.618;2022-12-18T00:17:26;-6.00;99.90
39779;DHT22;25454;49.878;8.618;2022-12-18T00:22:26;-6.00;99.90
39779;DHT22;25454;49.878;8.618;2022-12-18T00:27:27;-6.00;99.90
39779;DHT22;25454;49.878;8.618;2022-12-18T00:32:28;-6.00;99.90
39779;DHT22;25454;49.878;8.618;2022-12-18T00:37:28;-6.00;99.90
39779;DHT22;25454;49.878;8.618;2022-12-18T00:42:29;-6.00;99.90
39779;DHT22;25454;49.878;8.618;2022-12-18T00:48:02;-6.00;99.90
39779;DHT22;25454;49.878;8.618;2022-12-18T00:53:03;-6.00;99.90
39779;DHT22;25454;49.878;8.618;2022-12-18T00:58:03;-6.10;99.90
39779;DHT22;25454;49.878;8.618;2022-12-18T01:03:05;-6.10;99.90
39779;DHT22;25454;49.878;8.618;2022-12-18T01:08:05;-6.00;99.90
39779;DHT22;25454;49.878;8.618;2022-12-18T01:13:06;-6.00;99.90
39779;DHT22;25454;49.878;8.618;2022-12-18T01:18:07;-6.00;99.90
39779;DHT22;25454;49.878;8.618;2022-12-18T01:23:07;-6.00;99.90
39779;DHT22;25454;49.878;8.618;2022-12-18T01:28:08;-6.00;99.90
39779;DHT22;25454;49.878;8.618;2022-12-18T01:33:08;-6.10;99.90
39779;DHT22;25454;49.878;8.618;2022-12-18T01:38:09;-6.10;99.90
39779;DHT22;25454;49.878;8.618;2022-12-18T01:43:10;-6.10;99.90
39779;DHT22;25454;49.878;8.618;2022-12-18T01:48:10;-6.10;99.90
39779;DHT22;25454;49.878;8.618;2022-12-18T01:53:16;-6.20;99.90
39779;DHT22;25454;49.878;8.618;2022-12-18T01:58:19;-6.30;99.90
39779;DHT22;25454;49.878;8.618;2022-12-18T02:03:20;-6.50;99.90
39779;DHT22;25454;49.878;8.618;2022-12-18T02:13:39;-6.50;99.90
39779;DHT22;25454;49.878;8.618;2022-12-18T02:18:48;-6.50;99.90
39779;DHT22;25454;49.878;8.618;2022-12-18T02:24:17;-6.50;99.90
39779;DHT22;25454;49.878;8.618;2022-12-18T02:29:32;-6.50;99.90
39779;DHT22;25454;49.878;8.618;2022-12-18T02:34:38;-6.40;99.90
39779;DHT22;25454;49.878;8.618;2022-12-18T02:39:41;-6.40;99.90
39779;DHT22;25454;49.878;8.618;2022-12-18T02:44:44;-6.40;99.90
39779;DHT22;25454;49.878;8.618;2022-12-18T03:05:53;-6.20;99.90
39779;DHT22;25454;49.878;8.618;2022-12-18T03:11:00;-6.20;99.90
39779;DHT22;25454;49.878;8.618;2022-12-18T03:16:03;-6.20;99.90
39779;DHT22;25454;49.878;8.618;2022-12-18T03:21:06;-6.20;99.90
39779;DHT22;25454;49.878;8.618;2022-12-18T03:26:11;-6.30;99.90
39779;DHT22;25454;49.878;8.618;2022-12-18T03:31:14;-6.40;99.90
39779;DHT22;25454;49.878;8.618;2022-12-18T03:36:15;-6.40;99.90
39779;DHT22;25454;49.878;8.618;2022-12-18T03:46:30;-6.40;99.90
39779;DHT22;25454;49.878;8.618;2022-12-18T03:51:51;-6.60;99.90
39779;DHT22;25454;49.878;8.618;2022-12-18T03:57:01;-6.60;99.90
39779;DHT22;25454;49.878;8.618;2022-12-18T04:02:04;-6.60;99.90
39779;DHT22;25454;49.878;8.618;2022-12-18T04:07:05;-6.70;99.90
39779;DHT22;25454;49.878;8.618;2022-12-18T04:12:06;-6.70;99.90
39779;DHT22;25454;49.878;8.618;2022-12-18T04:17:08;-6.70;99.90
39779;DHT22;25454;49.878;8.618;2022-12-18T04:22:12;-6.70;99.90
39779;DHT22;25454;49.878;8.618;2022-12-18T04:27:12;-6.70;99.90
39779;DHT22;25454;49.878;8.618;2022-12-18T04:32:13;-6.70;99.90
39779;DHT22;25454;49.878;8.618;2022-12-18T04:37:14;-6.70;99.90
39779;DHT22;25454;49.878;8.618;2022-12-18T04:42:14;-6.70;99.90
39779;DHT22;25454;49.878;8.618;2022-12-18T04:47:15;-6.60;99.90
39779;DHT22;25454;49.878;8.618;2022-12-18T04:52:15;-6.60;99.90
39779;DHT22;25454;49.878;8.618;2022-12-18T04:57:16;-6.60;99.90
39779;DHT22;25454;49.878;8.618;2022-12-18T05:02:18;-6.60;99.90
39779;DHT22;25454;49.878;8.618;2022-12-18T05:07:18;-6.70;99.90
39779;DHT22;25454;49.878;8.618;2022-12-18T05:12:22;-6.70;99.90
39779;DHT22;25454;49.878;8.618;2022-12-18T05:17:22;-6.70;99.90
39779;DHT22;25454;49.878;8.618;2022-12-18T05:22:23;-6.70;99.90
39779;DHT22;25454;49.878;8.618;2022-12-18T05:27:25;-6.80;99.90
39779;DHT22;25454;49.878;8.618;2022-12-18T05:32:25;-6.70;99.90
39779;DHT22;25454;49.878;8.618;2022-12-18T05:37:26;-6.70;99.90
39779;DHT22;25454;49.878;8.618;2022-12-18T05:42:30;-6.60;99.90
39779;DHT22;25454;49.878;8.618;2022-12-18T05:47:34;-6.70;99.90
39779;DHT22;25454;49.878;8.618;2022-12-18T05:52:34;-6.60;99.90
39779;DHT22;25454;49.878;8.618;2022-12-18T05:57:35;-6.70;99.90
39779;DHT22;25454;49.878;8.618;2022-12-18T06:02:35;-6.60;99.90
39779;DHT22;25454;49.878;8.618;2022-12-18T06:07:36;-6.60;99.90
39779;DHT22;25454;49.878;8.618;2022-12-18T06:12:37;-6.50;99.90
39779;DHT22;25454;49.878;8.618;2022-12-18T06:17:37;-6.50;99.90
39779;DHT22;25454;49.878;8.618;2022-12-18T06:22:38;-6.50;99.90
39779;DHT22;25454;49.878;8.618;2022-12-18T06:27:39;-6.50;99.90
39779;DHT22;25454;49.878;8.618;2022-12-18T06:32:39;-6.70;99.90
39779;DHT22;25454;49.878;8.618;2022-12-18T06:37:40;-6.80;99.90
39779;DHT22;25454;49.878;8.618;2022-12-18T06:42:40;-7.00;99.90
39779;DHT22;25454;49.878;8.618;2022-12-18T06:47:41;-7.10;99.90
39779;DHT22;25454;49.878;8.618;2022-12-18T06:52:41;-7.20;99.90
39779;DHT22;25454;49.878;8.618;2022-12-18T06:57:44;-7.30;99.90
39779;DHT22;25454;49.878;8.618;2022-12-18T07:02:44;-7.30;99.90
39779;DHT22;25454;49.878;8.618;2022-12-18T07:07:45;-7.30;99.90
39779;DHT22;25454;49.878;8.618;2022-12-18T07:12:45;-7.20;99.90
39779;DHT22;25454;49.878;8.618;2022-12-18T07:17:46;-7.20;99.90
39779;DHT22;25454;49.878;8.618;2022-12-18T07:22:47;-7.20;99.90
39779;DHT22;25454;49.878;8.618;2022-12-18T07:27:47;-7.20;99.90
39779;DHT22;25454;49.878;8.618;2022-12-18T07:32:48;-7.10;99.90
39779;DHT22;25454;49.878;8.618;2022-12-18T07:37:48;-7.10;99.90
39779;DHT22;25454;49.878;8.618;2022-12-18T07:42:49;-7.20;99.90
39779;DHT22;25454;49.878;8.618;2022-12-18T07:47:49;-7.20;99.90
39779;DHT22;25454;49.878;8.618;2022-12-18T07:52:50;-7.10;99.90
39779;DHT22;25454;49.878;8.618;2022-12-18T07:57:51;-7.00;99.90
39779;DHT22;25454;49.878;8.618;2022-12-18T08:02:51;-6.90;99.90
39779;DHT22;25454;49.878;8.618;2022-12-18T08:07:52;-6.80;99.90
39779;DHT22;25454;49.878;8.618;2022-12-18T08:12:53;-6.70;99.90
39779;DHT22;25454;49.878;8.618;2022-12-18T08:17:56;-6.60;99.90
39779;DHT22;25454;49.878;8.618;2022-12-18T08:22:57;-6.50;99.90
39779;DHT22;25454;49.878;8.618;2022-12-18T08:27:58;-6.40;99.90
39779;DHT22;25454;49.878;8.618;2022-12-18T08:32:58;-6.10;99.90
39779;DHT22;25454;49.878;8.618;2022-12-18T08:37:59;-5.80;99.90
39779;DHT22;25454;49.878;8.618;2022-12-18T08:43:00;-5.70;99.90
39779;DHT22;25454;49.878;8.618;2022-12-18T08:48:19;-4.60;99.90
39779;DHT22;25454;49.878;8.618;2022-12-18T08:53:19;-0.40;99.90
39779;DHT22;25454;49.878;8.618;2022-12-18T08:58:21;2.90;99.90
39779;DHT22;25454;49.878;8.618;2022-12-18T09:03:22;5.20;92.00
39779;DHT22;25454;49.878;8.618;2022-12-18T09:08:23;6.80;74.40
39779;DHT22;25454;49.878;8.618;2022-12-18T09:13:24;8.10;62.90
39779;DHT22;25454;49.878;8.618;2022-12-18T09:18:24;9.30;57.90
39779;DHT22;25454;49.878;8.618;2022-12-18T09:23:25;9.30;55.10
39779;DHT22;25454;49.878;8.618;2022-12-18T09:28:26;10.10;54.10
39779;DHT22;25454;49.878;8.618;2022-12-18T09:33:27;10.80;51.10
39779;DHT22;25454;49.878;8.618;2022-12-18T09:38:28;11.50;50.40
39779;DHT22;25454;49.878;8.618;2022-12-18T09:43:40;12.00;48.10
39779;DHT22;25454;49.878;8.618;2022-12-18T09:48:45;13.20;46.90
39779;DHT22;25454;49.878;8.618;2022-12-18T09:53:55;13.50;45.30
39779;DHT22;25454;49.878;8.618;2022-12-18T09:58:59;9.40;51.60
39779;DHT22;25454;49.878;8.618;2022-12-18T10:03:59;7.60;55.90
39779;DHT22;25454;49.878;8.618;2022-12-18T10:14:41;5.10;64.50
39779;DHT22;25454;49.878;8.618;2022-12-18T10:25:37;5.50;67.10
39779;DHT22;25454;49.878;8.618;2022-12-18T10:30:41;5.70;65.90
39779;DHT22;25454;49.878;8.618;2022-12-18T10:35:43;5.20;66.40
39779;DHT22;25454;49.878;8.618;2022-12-18T10:41:23;3.40;73.10
39779;DHT22;25454;49.878;8.618;2022-12-18T10:46:21;2.50;78.00
39779;DHT22;25454;49.878;8.618;2022-12-18T10:51:31;1.70;83.40
39779;DHT22;25454;49.878;8.618;2022-12-18T10:56:36;1.30;86.40
39779;DHT22;25454;49.878;8.618;2022-12-18T11:01:57;1.70;87.20
39779;DHT22;25454;49.878;8.618;2022-12-18T11:07:01;0.90;89.00
39779;DHT22;25454;49.878;8.618;2022-12-18T11:12:06;1.40;90.10
39779;DHT22;25454;49.878;8.618;2022-12-18T11:22:30;0.60;90.60
39779;DHT22;25454;49.878;8.618;2022-12-18T11:27:31;-0.10;93.70
39779;DHT22;25454;49.878;8.618;2022-12-18T11:32:38;-0.50;96.00
39779;DHT22;25454;49.878;8.618;2022-12-18T11:37:43;-0.90;98.50
39779;DHT22;25454;49.878;8.618;2022-12-18T11:48:18;-0.70;99.90
39779;DHT22;25454;49.878;8.618;2022-12-18T11:53:22;-0.80;99.90
39779;DHT22;25454;49.878;8.618;2022-12-18T11:58:47;-0.90;99.90
39779;DHT22;25454;49.878;8.618;2022-12-18T12:14:58;-0.80;99.90
39779;DHT22;25454;49.878;8.618;2022-12-18T12:26:11;-0.60;99.90
39779;DHT22;25454;49.878;8.618;2022-12-18T12:31:35;-0.30;99.90
39779;DHT22;25454;49.878;8.618;2022-12-18T12:36:48;-0.20;99.90
39779;DHT22;25454;49.878;8.618;2022-12-18T12:41:52;-0.50;99.90
39779;DHT22;25454;49.878;8.618;2022-12-18T12:47:17;-0.50;99.90
39779;DHT22;25454;49.878;8.618;2022-12-18T12:52:31;-0.60;99.90
39779;DHT22;25454;49.878;8.618;2022-12-18T12:57:40;-0.60;99.90
39779;DHT22;25454;49.878;8.618;2022-12-18T13:03:06;-0.70;99.90
39779;DHT22;25454;49.878;8.618;2022-12-18T13:08:23;-0.70;99.90
39779;DHT22;25454;49.878;8.618;2022-12-18T13:13:49;-0.80;99.90
39779;DHT22;25454;49.878;8.618;2022-12-18T13:18:54;-1.00;99.90
39779;DHT22;25454;49.878;8.618;2022-12-18T13:24:15;-1.10;99.90
39779;DHT22;25454;49.878;8.618;2022-12-18T13:29:42;-1.30;99.90
39779;DHT22;25454;49.878;8.618;2022-12-18T13:34:43;-1.40;99.90
39779;DHT22;25454;49.878;8.618;2022-12-18T13:39:44;-1.50;99.90
39779;DHT22;25454;49.878;8.618;2022-12-18T13:44:45;-1.40;99.90
39779;DHT22;25454;49.878;8.618;2022-12-18T13:49:47;-1.40;99.90
39779;DHT22;25454;49.878;8.618;2022-12-18T13:54:53;-1.40;99.90
39779;DHT22;25454;49.878;8.618;2022-12-18T13:59:55;-1.40;99.90
39779;DHT22;25454;49.878;8.618;2022-12-18T14:04:56;-1.50;99.90
39779;DHT22;25454;49.878;8.618;2022-12-18T14:10:01;-1.60;99.90
39779;DHT22;25454;49.878;8.618;2022-12-18T14:15:09;-1.80;99.90
39779;DHT22;25454;49.878;8.618;2022-12-18T14:20:15;-1.80;99.90
39779;DHT22;25454;49.878;8.618;2022-12-18T14:25:21;-1.80;99.90
39779;DHT22;25454;49.878;8.618;2022-12-18T14:35:53;-1.80;99.90
39779;DHT22;25454;49.878;8.618;2022-12-18T14:41:03;-1.80;99.90
39779;DHT22;25454;49.878;8.618;2022-12-18T14:51:34;-1.80;99.90
39779;DHT22;25454;49.878;8.618;2022-12-18T14:56:48;-1.70;99.90
39779;DHT22;25454;49.878;8.618;2022-12-18T15:12:48;-1.80;99.90
39779;DHT22;25454;49.878;8.618;2022-12-18T15:17:55;-1.80;99.90
39779;DHT22;25454;49.878;8.618;2022-12-18T15:22:56;-1.80;99.90
39779;DHT22;25454;49.878;8.618;2022-12-18T15:27:57;-1.90;99.90
39779;DHT22;25454;49.878;8.618;2022-12-18T15:33:23;-1.90;99.90
39779;DHT22;25454;49.878;8.618;2022-12-18T15:38:25;-1.90;99.90
39779;DHT22;25454;49.878;8.618;2022-12-18T15:43:29;-1.90;99.90
39779;DHT22;25454;49.878;8.618;2022-12-18T15:48:42;-1.90;99.90
39779;DHT22;25454;49.878;8.618;2022-12-18T15:53:43;-1.90;99.90
39779;DHT22;25454;49.878;8.618;2022-12-18T15:58:44;-1.90;99.90
39779;DHT22;25454;49.878;8.618;2022-12-18T16:03:45;-2.00;99.90
39779;DHT22;25454;49.878;8.618;2022-12-18T16:08:46;-2.00;99.90
39779;DHT22;25454;49.878;8.618;2022-12-18T16:13:46;-2.00;99.90
39779;DHT22;25454;49.878;8.618;2022-12-18T16:18:47;-2.00;99.90
39779;DHT22;25454;49.878;8.618;2022-12-18T16:23:47;-2.00;99.90
39779;DHT22;25454;49.878;8.618;2022-12-18T16:28:48;-1.90;99.90
39779;DHT22;25454;49.878;8.618;2022-12-18T16:33:49;-1.90;99.90
39779;DHT22;25454;49.878;8.618;2022-12-18T16:38:49;-1.80;99.90
39779;DHT22;25454;49.878;8.618;2022-12-18T16:43:50;-1.70;99.90
39779;DHT22;25454;49.878;8.618;2022-12-18T16:48:50;-1.60;99.90
39779;DHT22;25454;49.878;8.618;2022-12-18T16:53:51;-1.60;99.90
39779;DHT22;25454;49.878;8.618;2022-12-18T16:58:55;-1.60;99.90
39779;DHT22;25454;49.878;8.618;2022-12-18T17:04:00;-1.70;99.90
39779;DHT22;25454;49.878;8.618;2022-12-18T17:09:03;-1.70;99.90
39779;DHT22;25454;49.878;8.618;2022-12-18T17:14:06;-1.60;99.90
39779;DHT22;25454;49.878;8.618;2022-12-18T17:19:07;-1.60;99.90
39779;DHT22;25454;49.878;8.618;2022-12-18T17:24:08;-1.60;99.90
39779;DHT22;25454;49.878;8.618;2022-12-18T17:29:13;-1.60;99.90
39779;DHT22;25454;49.878;8.618;2022-12-18T17:34:14;-1.50;99.90
39779;DHT22;25454;49.878;8.618;2022-12-18T17:39:18;-1.40;99.90
39779;DHT22;25454;49.878;8.618;2022-12-18T17:44:19;-1.40;99.90
39779;DHT22;25454;49.878;8.618;2022-12-18T17:49:20;-1.40;99.90
39779;DHT22;25454;49.878;8.618;2022-12-18T17:54:20;-1.30;99.90
39779;DHT22;25454;49.878;8.618;2022-12-18T17:59:21;-1.30;99.90
39779;DHT22;25454;49.878;8.618;2022-12-18T18:04:22;-1.30;99.90
39779;DHT22;25454;49.878;8.618;2022-12-18T18:09:23;-1.20;99.90
39779;DHT22;25454;49.878;8.618;2022-12-18T18:14:24;-1.10;99.90
39779;DHT22;25454;49.878;8.618;2022-12-18T18:19:26;-1.10;99.90
39779;DHT22;25454;49.878;8.618;2022-12-18T18:24:26;-1.00;99.90
39779;DHT22;25454;49.878;8.618;2022-12-18T18:29:27;-0.90;99.90
39779;DHT22;25454;49.878;8.618;2022-12-18T18:34:32;-0.90;99.90
39779;DHT22;25454;49.878;8.618;2022-12-18T18:39:41;-1.00;99.90
39779;DHT22;25454;49.878;8.618;2022-12-18T18:44:42;-1.00;99.90
39779;DHT22;25454;49.878;8.618;2022-12-18T18:49:43;-0.90;99.90
39779;DHT22;25454;49.878;8.618;2022-12-18T18:54:45;-0.90;99.90
39779;DHT22;25454;49.878;8.618;2022-12-18T18:59:46;-0.90;99.90
39779;DHT22;25454;49.878;8.618;2022-12-18T19:04:46;-0.90;99.90
39779;DHT22;25454;49.878;8.618;2022-12-18T19:09:47;-0.80;99.90
39779;DHT22;25454;49.878;8.618;2022-12-18T19:14:53;-0.80;99.90
39779;DHT22;25454;49.878;8.618;2022-12-18T19:19:53;-0.80;99.90
39779;DHT22;25454;49.878;8.618;2022-12-18T19:24:54;-0.80;99.90
39779;DHT22;25454;49.878;8.618;2022-12-18T19:29:54;-0.90;99.90
39779;DHT22;25454;49.878;8.618;2022-12-18T19:34:55;-0.90;99.90
39779;DHT22;25454;49.878;8.618;2022-12-18T19:39:56;-1.00;99.90
39779;DHT22;25454;49.878;8.618;2022-12-18T19:44:57;-1.00;99.90
39779;DHT22;25454;49.878;8.618;2022-12-18T19:49:57;-0.90;99.90
39779;DHT22;25454;49.878;8.618;2022-12-18T19:54:58;-0.90;99.90
39779;DHT22;25454;49.878;8.618;2022-12-18T19:59:58;-1.00;99.90
39779;DHT22;25454;49.878;8.618;2022-12-18T20:04:59;-1.00;99.90
39779;DHT22;25454;49.878;8.618;2022-12-18T20:10:00;-1.00;99.90
39779;DHT22;25454;49.878;8.618;2022-12-18T20:15:01;-1.10;99.90
39779;DHT22;25454;49.878;8.618;2022-12-18T20:20:02;-1.20;99.90
39779;DHT22;25454;49.878;8.618;2022-12-18T20:25:03;-1.30;99.90
39779;DHT22;25454;49.878;8.618;2022-12-18T20:30:04;-1.50;99.90
39779;DHT22;25454;49.878;8.618;2022-12-18T20:35:05;-1.50;99.90
39779;DHT22;25454;49.878;8.618;2022-12-18T20:40:06;-1.50;99.90
39779;DHT22;25454;49.878;8.618;2022-12-18T20:45:07;-1.60;99.90
39779;DHT22;25454;49.878;8.618;2022-12-18T20:50:07;-1.60;99.90
39779;DHT22;25454;49.878;8.618;2022-12-18T20:55:08;-1.50;99.90
39779;DHT22;25454;49.878;8.618;2022-12-18T21:00:09;-1.50;99.90
39779;DHT22;25454;49.878;8.618;2022-12-18T21:05:13;-1.40;99.90
39779;DHT22;25454;49.878;8.618;2022-12-18T21:10:14;-1.40;99.90
39779;DHT22;25454;49.878;8.618;2022-12-18T21:15:15;-1.30;99.90
39779;DHT22;25454;49.878;8.618;2022-12-18T21:20:15;-1.20;99.90
39779;DHT22;25454;49.878;8.618;2022-12-18T21:25:16;-1.10;99.90
39779;DHT22;25454;49.878;8.618;2022-12-18T21:30:17;-1.10;99.90
39779;DHT22;25454;49.878;8.618;2022-12-18T21:35:17;-1.10;99.90
39779;DHT22;25454;49.878;8.618;2022-12-18T21:40:18;-1.00;99.90
39779;DHT22;25454;49.878;8.618;2022-12-18T21:45:18;-1.00;99.90
39779;DHT22;25454;49.878;8.618;2022-12-18T21:50:19;-1.10;99.90
39779;DHT22;25454;49.878;8.618;2022-12-18T21:55:19;-1.10;99.90
39779;DHT22;25454;49.878;8.618;2022-12-18T22:00:20;-1.10;99.90
39779;DHT22;25454;49.878;8.618;2022-12-18T22:05:21;-1.10;99.90
39779;DHT22;25454;49.878;8.618;2022-12-18T22:10:21;-1.20;99.90
39779;DHT22;25454;49.878;8.618;2022-12-18T22:15:22;-1.10;99.90
39779;DHT22;25454;49.878;8.618;2022-12-18T22:20:22;-1.30;99.90
39779;DHT22;25454;49.878;8.618;2022-12-18T22:25:23;-1.30;99.90
39779;DHT22;25454;49.878;8.618;2022-12-18T22:30:24;-1.30;99.90
39779;DHT22;25454;49.878;8.618;2022-12-18T22:35:24;-1.30;99.90
39779;DHT22;25454;49.878;8.618;2022-12-18T22:40:25;-1.20;99.90
39779;DHT22;25454;49.878;8.618;2022-12-18T22:45:26;-1.10;99.90
39779;DHT22;25454;49.878;8.618;2022-12-18T22:50:27;-1.10;99.90
39779;DHT22;25454;49.878;8.618;2022-12-18T22:55:27;-1.00;99.90
39779;DHT22;25454;49.878;8.618;2022-12-18T23:00:28;-1.00;99.90
39779;DHT22;25454;49.878;8.618;2022-12-18T23:05:29;-0.90;99.90
39779;DHT22;25454;49.878;8.618;2022-12-18T23:10:30;-0.90;99.90
39779;DHT22;25454;49.878;8.618;2022-12-18T23:15:30;-0.80;99.90
39779;DHT22;25454;49.878;8.618;2022-12-18T23:20:31;-0.70;99.90
39779;DHT22;25454;49.878;8.618;2022-12-18T23:25:31;-0.70;99.90
39779;DHT22;25454;49.878;8.618;2022-12-18T23:30:32;-0.60;99.90
39779;DHT22;25454;49.878;8.618;2022-12-18T23:35:33;-0.60;99.90
39779;DHT22;25454;49.878;8.618;2022-12-18T23:40:33;-0.60;99.90
39779;DHT22;25454;49.878;8.618;2022-12-18T23:45:39;-0.60;99.90
39779;DHT22;25454;49.878;8.618;2022-12-18T23:50:39;-0.50;99.90
39779;DHT22;25454;49.878;8.618;2022-12-18T23:55:41;-0.40;99.90
